sensor_id;sensor_type;location;lat;lon;timestamp;noise_LAeq;noise_LA_min;noise_LA_max;noise_LA01;noise_LA95
72805;Laerm;60920;48.748;19.142;2023-05-02T00:01:30;30.12;27.97;36.22;;
72805;Laerm;60920;48.748;19.142;2023-05-02T00:03:55;29.37;27.68;34.82;;
72805;Laerm;60920;48.748;19.142;2023-05-02T00:06:21;30.42;27.58;39.38;;
72805;Laerm;60920;48.748;19.142;2023-05-02T00:08:47;29.65;27.56;38.79;;
72805;Laerm;60920;48.748;19.142;2023-05-02T00:11:13;29.02;27.47;39.18;;
72805;Laerm;60920;48.748;19.142;2023-05-02T00:13:38;28.96;27.56;30.76;;
72805;Laerm;60920;48.748;19.142;2023-05-02T00:16:03;29.27;27.69;32.82;;
72805;Laerm;60920;48.748;19.142;2023-05-02T00:18:29;29.93;27.68;37.68;;
72805;Laerm;60920;48.748;19.142;2023-05-02T00:20:54;29.47;27.76;34.93;;
72805;Laerm;60920;48.748;19.142;2023-05-02T00:23:21;29.47;27.53;34.84;;
72805;Laerm;60920;48.748;19.142;2023-05-02T00:25:46;29.14;27.80;31.43;;
72805;Laerm;60920;48.748;19.142;2023-05-02T00:28:12;29.66;27.84;33.03;;
72805;Laerm;60920;48.748;19.142;2023-05-02T00:30:43;30.39;27.68;40.45;;
72805;Laerm;60920;48.748;19.142;2023-05-02T00:33:09;29.15;27.68;30.75;;
72805;Laerm;60920;48.748;19.142;2023-05-02T00:35:36;30.42;27.79;38.24;;
72805;Laerm;60920;48.748;19.142;2023-05-02T00:38:01;29.44;27.77;33.72;;
72805;Laerm;60920;48.748;19.142;2023-05-02T00:40:27;30.49;27.77;40.46;;
72805;Laerm;60920;48.748;19.142;2023-05-02T00:42:52;29.58;27.62;36.50;;
72805;Laerm;60920;48.748;19.142;2023-05-02T00:45:17;32.08;28.06;48.23;;
72805;Laerm;60920;48.748;19.142;2023-05-02T00:47:43;29.92;27.52;38.80;;
72805;Laerm;60920;48.748;19.142;2023-05-02T00:50:08;29.60;27.53;36.53;;
72805;Laerm;60920;48.748;19.142;2023-05-02T00:52:33;30.39;27.76;39.77;;
72805;Laerm;60920;48.748;19.142;2023-05-02T00:54:59;32.73;28.07;41.95;;
72805;Laerm;60920;48.748;19.142;2023-05-02T00:57:25;29.58;27.33;34.83;;
72805;Laerm;60920;48.748;19.142;2023-05-02T00:59:50;30.71;27.80;39.58;;
72805;Laerm;60920;48.748;19.142;2023-05-02T01:02:21;29.54;27.79;34.10;;
72805;Laerm;60920;48.748;19.142;2023-05-02T01:07:25;30.13;27.74;39.18;;
72805;Laerm;60920;48.748;19.142;2023-05-02T01:12:30;29.85;27.88;37.17;;
72805;Laerm;60920;48.748;19.142;2023-05-02T01:14:57;28.98;27.61;33.57;;
72805;Laerm;60920;48.748;19.142;2023-05-02T01:17:25;29.21;27.66;32.46;;
72805;Laerm;60920;48.748;19.142;2023-05-02T01:19:54;29.56;27.80;33.54;;
72805;Laerm;60920;48.748;19.142;2023-05-02T01:22:20;30.34;27.85;35.45;;
72805;Laerm;60920;48.748;19.142;2023-05-02T01:25:31;30.88;27.98;40.27;;
72805;Laerm;60920;48.748;19.142;2023-05-02T01:30:23;29.94;27.87;35.08;;
72805;Laerm;60920;48.748;19.142;2023-05-02T01:32:51;30.53;28.00;37.38;;
72805;Laerm;60920;48.748;19.142;2023-05-02T01:35:17;29.63;27.80;34.45;;
72805;Laerm;60920;48.748;19.142;2023-05-02T01:37:44;30.51;27.91;38.43;;
72805;Laerm;60920;48.748;19.142;2023-05-02T01:40:12;29.73;28.15;33.16;;
72805;Laerm;60920;48.748;19.142;2023-05-02T01:42:38;31.91;28.73;37.71;;
72805;Laerm;60920;48.748;19.142;2023-05-02T01:45:04;32.67;27.90;41.52;;
72805;Laerm;60920;48.748;19.142;2023-05-02T01:47:31;31.54;28.29;44.23;;
72805;Laerm;60920;48.748;19.142;2023-05-02T01:49:58;31.94;28.36;42.04;;
72805;Laerm;60920;48.748;19.142;2023-05-02T01:52:24;30.79;28.14;43.30;;
72805;Laerm;60920;48.748;19.142;2023-05-02T01:54:51;30.03;28.05;34.86;;
72805;Laerm;60920;48.748;19.142;2023-05-02T01:57:18;30.71;28.28;38.15;;
72805;Laerm;60920;48.748;19.142;2023-05-02T01:59:43;31.73;28.18;38.73;;
72805;Laerm;60920;48.748;19.142;2023-05-02T02:02:11;30.84;28.17;38.29;;
72805;Laerm;60920;48.748;19.142;2023-05-02T02:04:38;30.73;27.95;38.94;;
72805;Laerm;60920;48.748;19.142;2023-05-02T02:07:08;31.01;28.02;39.33;;
72805;Laerm;60920;48.748;19.142;2023-05-02T02:09:34;30.59;27.96;36.56;;
72805;Laerm;60920;48.748;19.142;2023-05-02T02:12:11;30.38;28.09;39.27;;
72805;Laerm;60920;48.748;19.142;2023-05-02T02:14:45;32.53;28.80;41.29;;
72805;Laerm;60920;48.748;19.142;2023-05-02T02:17:14;31.01;28.29;47.87;;
72805;Laerm;60920;48.748;19.142;2023-05-02T02:19:40;31.26;28.18;36.29;;
72805;Laerm;60920;48.748;19.142;2023-05-02T02:22:07;31.88;28.16;39.65;;
72805;Laerm;60920;48.748;19.142;2023-05-02T02:24:34;31.21;28.64;41.35;;
72805;Laerm;60920;48.748;19.142;2023-05-02T02:27:00;32.97;28.47;41.71;;
72805;Laerm;60920;48.748;19.142;2023-05-02T02:29:26;33.30;28.65;42.23;;
72805;Laerm;60920;48.748;19.142;2023-05-02T02:31:52;32.09;29.09;39.13;;
72805;Laerm;60920;48.748;19.142;2023-05-02T02:34:17;31.10;28.55;36.43;;
72805;Laerm;60920;48.748;19.142;2023-05-02T02:36:53;33.89;29.66;44.30;;
72805;Laerm;60920;48.748;19.142;2023-05-02T02:42:15;33.57;28.91;45.24;;
72805;Laerm;60920;48.748;19.142;2023-05-02T02:44:59;32.97;29.21;41.39;;
72805;Laerm;60920;48.748;19.142;2023-05-02T02:47:35;34.03;29.59;45.38;;
72805;Laerm;60920;48.748;19.142;2023-05-02T02:53:08;33.66;29.15;45.16;;
72805;Laerm;60920;48.748;19.142;2023-05-02T02:55:54;33.13;28.92;38.47;;
72805;Laerm;60920;48.748;19.142;2023-05-02T03:00:57;35.52;29.18;47.98;;
72805;Laerm;60920;48.748;19.142;2023-05-02T03:03:26;36.49;29.70;46.66;;
72805;Laerm;60920;48.748;19.142;2023-05-02T03:05:56;36.41;29.24;49.18;;
72805;Laerm;60920;48.748;19.142;2023-05-02T03:08:22;36.23;29.86;47.18;;
72805;Laerm;60920;48.748;19.142;2023-05-02T03:10:47;34.81;29.32;44.79;;
72805;Laerm;60920;48.748;19.142;2023-05-02T03:13:13;35.70;28.78;48.91;;
72805;Laerm;60920;48.748;19.142;2023-05-02T03:18:16;35.41;30.02;49.39;;
72805;Laerm;60920;48.748;19.142;2023-05-02T03:20:41;34.62;29.38;44.12;;
72805;Laerm;60920;48.748;19.142;2023-05-02T03:23:07;34.63;29.52;45.76;;
72805;Laerm;60920;48.748;19.142;2023-05-02T03:25:32;34.89;28.81;47.15;;
72805;Laerm;60920;48.748;19.142;2023-05-02T03:27:58;34.18;29.86;47.45;;
72805;Laerm;60920;48.748;19.142;2023-05-02T03:30:23;34.43;30.28;41.27;;
72805;Laerm;60920;48.748;19.142;2023-05-02T03:32:49;34.00;29.88;40.79;;
72805;Laerm;60920;48.748;19.142;2023-05-02T03:35:14;33.87;29.08;40.40;;
72805;Laerm;60920;48.748;19.142;2023-05-02T03:37:40;33.16;28.98;41.56;;
72805;Laerm;60920;48.748;19.142;2023-05-02T03:40:05;33.80;30.08;42.06;;
72805;Laerm;60920;48.748;19.142;2023-05-02T03:42:33;35.51;29.92;46.95;;
72805;Laerm;60920;48.748;19.142;2023-05-02T03:45:04;35.51;30.90;42.98;;
72805;Laerm;60920;48.748;19.142;2023-05-02T03:47:29;34.81;31.41;45.94;;
72805;Laerm;60920;48.748;19.142;2023-05-02T03:49:55;34.51;30.70;41.32;;
72805;Laerm;60920;48.748;19.142;2023-05-02T03:52:20;35.15;29.30;47.53;;
72805;Laerm;60920;48.748;19.142;2023-05-02T03:54:45;34.52;30.47;39.61;;
72805;Laerm;60920;48.748;19.142;2023-05-02T03:57:11;34.05;29.25;41.61;;
72805;Laerm;60920;48.748;19.142;2023-05-02T03:59:37;34.89;29.56;42.12;;
72805;Laerm;60920;48.748;19.142;2023-05-02T04:02:05;34.77;30.40;41.34;;
72805;Laerm;60920;48.748;19.142;2023-05-02T04:04:31;34.29;29.88;42.96;;
72805;Laerm;60920;48.748;19.142;2023-05-02T04:06:56;33.79;30.21;38.73;;
72805;Laerm;60920;48.748;19.142;2023-05-02T04:09:21;33.95;29.52;39.91;;
72805;Laerm;60920;48.748;19.142;2023-05-02T04:11:49;34.29;31.43;39.50;;
72805;Laerm;60920;48.748;19.142;2023-05-02T04:14:14;35.63;31.06;40.98;;
72805;Laerm;60920;48.748;19.142;2023-05-02T04:16:40;35.33;31.71;40.21;;
72805;Laerm;60920;48.748;19.142;2023-05-02T04:19:05;34.74;30.67;49.28;;
72805;Laerm;60920;48.748;19.142;2023-05-02T04:21:30;36.01;31.14;44.69;;
72805;Laerm;60920;48.748;19.142;2023-05-02T04:23:56;34.72;30.21;39.56;;
72805;Laerm;60920;48.748;19.142;2023-05-02T04:26:22;35.47;30.67;41.65;;
72805;Laerm;60920;48.748;19.142;2023-05-02T04:28:47;35.30;29.72;42.13;;
72805;Laerm;60920;48.748;19.142;2023-05-02T04:31:12;34.98;31.33;39.08;;
72805;Laerm;60920;48.748;19.142;2023-05-02T04:33:38;36.50;32.29;42.84;;
72805;Laerm;60920;48.748;19.142;2023-05-02T04:36:03;37.35;33.68;44.17;;
72805;Laerm;60920;48.748;19.142;2023-05-02T04:38:28;36.22;32.18;41.23;;
72805;Laerm;60920;48.748;19.142;2023-05-02T04:40:54;36.18;32.39;40.20;;
72805;Laerm;60920;48.748;19.142;2023-05-02T04:43:19;35.53;31.33;40.47;;
72805;Laerm;60920;48.748;19.142;2023-05-02T04:45:45;35.96;31.71;42.24;;
72805;Laerm;60920;48.748;19.142;2023-05-02T04:48:11;35.87;32.10;41.40;;
72805;Laerm;60920;48.748;19.142;2023-05-02T04:50:36;36.06;31.67;41.53;;
72805;Laerm;60920;48.748;19.142;2023-05-02T04:53:01;36.36;31.88;47.20;;
72805;Laerm;60920;48.748;19.142;2023-05-02T04:55:27;35.48;31.54;39.55;;
72805;Laerm;60920;48.748;19.142;2023-05-02T04:57:52;36.06;31.82;42.06;;
72805;Laerm;60920;48.748;19.142;2023-05-02T05:00:17;35.81;31.69;41.52;;
72805;Laerm;60920;48.748;19.142;2023-05-02T05:02:43;35.58;31.66;39.84;;
72805;Laerm;60920;48.748;19.142;2023-05-02T05:05:08;35.84;32.45;42.05;;
72805;Laerm;60920;48.748;19.142;2023-05-02T05:07:33;36.43;33.11;40.01;;
72805;Laerm;60920;48.748;19.142;2023-05-02T05:09:58;35.82;31.11;41.04;;
72805;Laerm;60920;48.748;19.142;2023-05-02T05:12:24;35.73;31.05;40.20;;
72805;Laerm;60920;48.748;19.142;2023-05-02T05:14:49;35.82;31.76;40.98;;
72805;Laerm;60920;48.748;19.142;2023-05-02T05:17:15;36.59;31.99;40.76;;
72805;Laerm;60920;48.748;19.142;2023-05-02T05:19:40;35.55;31.90;39.47;;
72805;Laerm;60920;48.748;19.142;2023-05-02T05:22:06;35.04;31.19;40.89;;
72805;Laerm;60920;48.748;19.142;2023-05-02T05:24:32;36.35;31.84;41.78;;
72805;Laerm;60920;48.748;19.142;2023-05-02T05:26:57;35.98;31.97;42.20;;
72805;Laerm;60920;48.748;19.142;2023-05-02T05:29:23;35.39;30.42;40.64;;
72805;Laerm;60920;48.748;19.142;2023-05-02T05:31:48;36.68;33.08;43.17;;
72805;Laerm;60920;48.748;19.142;2023-05-02T05:34:13;35.35;32.20;43.06;;
72805;Laerm;60920;48.748;19.142;2023-05-02T05:36:39;37.02;33.35;45.88;;
72805;Laerm;60920;48.748;19.142;2023-05-02T05:39:05;36.05;30.99;39.43;;
72805;Laerm;60920;48.748;19.142;2023-05-02T05:41:30;36.68;32.03;43.28;;
72805;Laerm;60920;48.748;19.142;2023-05-02T05:43:56;36.82;33.30;42.88;;
72805;Laerm;60920;48.748;19.142;2023-05-02T05:46:22;36.98;33.61;41.14;;
72805;Laerm;60920;48.748;19.142;2023-05-02T05:48:47;37.21;33.22;42.76;;
72805;Laerm;60920;48.748;19.142;2023-05-02T05:51:12;37.24;32.91;42.77;;
72805;Laerm;60920;48.748;19.142;2023-05-02T05:53:37;36.22;32.42;43.01;;
72805;Laerm;60920;48.748;19.142;2023-05-02T05:56:10;36.68;33.15;40.70;;
72805;Laerm;60920;48.748;19.142;2023-05-02T05:58:36;37.05;33.37;44.05;;
72805;Laerm;60920;48.748;19.142;2023-05-02T06:01:01;36.41;33.14;44.00;;
72805;Laerm;60920;48.748;19.142;2023-05-02T06:03:27;36.61;33.40;42.13;;
72805;Laerm;60920;48.748;19.142;2023-05-02T06:05:52;35.99;31.89;41.95;;
72805;Laerm;60920;48.748;19.142;2023-05-02T06:08:17;35.86;32.37;41.06;;
72805;Laerm;60920;48.748;19.142;2023-05-02T06:10:43;36.04;32.73;47.86;;
72805;Laerm;60920;48.748;19.142;2023-05-02T06:13:08;35.79;31.11;41.97;;
72805;Laerm;60920;48.748;19.142;2023-05-02T06:15:34;37.09;32.53;44.05;;
72805;Laerm;60920;48.748;19.142;2023-05-02T06:17:59;35.67;31.59;42.65;;
72805;Laerm;60920;48.748;19.142;2023-05-02T06:20:25;36.03;31.80;47.74;;
72805;Laerm;60920;48.748;19.142;2023-05-02T06:22:50;35.61;32.32;42.82;;
72805;Laerm;60920;48.748;19.142;2023-05-02T06:25:15;35.20;31.36;43.45;;
72805;Laerm;60920;48.748;19.142;2023-05-02T06:27:40;35.63;31.30;41.39;;
72805;Laerm;60920;48.748;19.142;2023-05-02T06:30:06;35.69;31.65;41.70;;
72805;Laerm;60920;48.748;19.142;2023-05-02T06:32:31;35.94;32.06;43.38;;
72805;Laerm;60920;48.748;19.142;2023-05-02T06:34:57;34.93;30.48;43.26;;
72805;Laerm;60920;48.748;19.142;2023-05-02T06:37:22;34.89;31.31;40.26;;
72805;Laerm;60920;48.748;19.142;2023-05-02T06:39:48;35.92;31.33;42.64;;
72805;Laerm;60920;48.748;19.142;2023-05-02T06:42:13;35.62;30.71;47.46;;
72805;Laerm;60920;48.748;19.142;2023-05-02T06:44:38;34.38;30.76;41.66;;
72805;Laerm;60920;48.748;19.142;2023-05-02T06:47:03;35.13;30.23;43.10;;
72805;Laerm;60920;48.748;19.142;2023-05-02T06:49:30;36.66;31.61;47.58;;
72805;Laerm;60920;48.748;19.142;2023-05-02T06:51:55;35.17;30.66;42.56;;
72805;Laerm;60920;48.748;19.142;2023-05-02T06:54:20;36.80;31.98;43.86;;
72805;Laerm;60920;48.748;19.142;2023-05-02T06:56:46;35.64;30.94;43.97;;
72805;Laerm;60920;48.748;19.142;2023-05-02T06:59:11;34.65;31.09;39.99;;
72805;Laerm;60920;48.748;19.142;2023-05-02T07:01:37;35.25;30.69;44.03;;
72805;Laerm;60920;48.748;19.142;2023-05-02T07:04:02;34.86;30.55;40.23;;
72805;Laerm;60920;48.748;19.142;2023-05-02T07:06:31;35.17;31.84;40.74;;
72805;Laerm;60920;48.748;19.142;2023-05-02T07:08:56;34.86;30.03;42.97;;
72805;Laerm;60920;48.748;19.142;2023-05-02T07:11:22;35.27;29.91;43.77;;
72805;Laerm;60920;48.748;19.142;2023-05-02T07:13:48;34.01;30.18;39.49;;
72805;Laerm;60920;48.748;19.142;2023-05-02T07:16:13;33.83;29.98;38.87;;
72805;Laerm;60920;48.748;19.142;2023-05-02T07:18:39;35.75;30.97;48.29;;
72805;Laerm;60920;48.748;19.142;2023-05-02T07:21:04;33.97;29.46;39.05;;
72805;Laerm;60920;48.748;19.142;2023-05-02T07:23:29;33.91;29.80;41.17;;
72805;Laerm;60920;48.748;19.142;2023-05-02T07:25:56;35.66;30.98;44.06;;
72805;Laerm;60920;48.748;19.142;2023-05-02T07:28:21;34.97;30.39;41.69;;
72805;Laerm;60920;48.748;19.142;2023-05-02T07:30:47;36.07;31.43;44.92;;
72805;Laerm;60920;48.748;19.142;2023-05-02T07:33:13;35.76;31.44;41.79;;
72805;Laerm;60920;48.748;19.142;2023-05-02T07:35:38;34.92;29.82;41.37;;
72805;Laerm;60920;48.748;19.142;2023-05-02T07:38:04;34.83;31.00;40.17;;
72805;Laerm;60920;48.748;19.142;2023-05-02T07:40:29;36.01;30.07;43.14;;
72805;Laerm;60920;48.748;19.142;2023-05-02T07:42:54;36.12;31.11;50.30;;
72805;Laerm;60920;48.748;19.142;2023-05-02T07:45:20;35.26;30.31;43.69;;
72805;Laerm;60920;48.748;19.142;2023-05-02T07:47:45;36.31;30.64;53.14;;
72805;Laerm;60920;48.748;19.142;2023-05-02T07:50:11;35.28;30.03;44.61;;
72805;Laerm;60920;48.748;19.142;2023-05-02T07:52:36;35.21;30.73;44.65;;
72805;Laerm;60920;48.748;19.142;2023-05-02T07:55:01;34.77;30.47;42.83;;
72805;Laerm;60920;48.748;19.142;2023-05-02T07:57:27;34.92;30.74;41.91;;
72805;Laerm;60920;48.748;19.142;2023-05-02T07:59:52;34.98;30.54;42.19;;
72805;Laerm;60920;48.748;19.142;2023-05-02T08:02:18;33.29;29.11;42.15;;
72805;Laerm;60920;48.748;19.142;2023-05-02T08:04:45;34.58;30.99;41.76;;
72805;Laerm;60920;48.748;19.142;2023-05-02T08:07:11;35.73;30.78;43.99;;
72805;Laerm;60920;48.748;19.142;2023-05-02T08:09:36;34.26;30.14;45.25;;
72805;Laerm;60920;48.748;19.142;2023-05-02T08:12:01;35.55;30.31;41.86;;
72805;Laerm;60920;48.748;19.142;2023-05-02T08:14:27;34.89;30.78;41.43;;
72805;Laerm;60920;48.748;19.142;2023-05-02T08:16:53;37.04;31.10;45.47;;
72805;Laerm;60920;48.748;19.142;2023-05-02T08:19:18;35.40;30.83;41.42;;
72805;Laerm;60920;48.748;19.142;2023-05-02T08:21:43;35.91;30.72;44.40;;
72805;Laerm;60920;48.748;19.142;2023-05-02T08:24:08;34.79;30.39;41.80;;
72805;Laerm;60920;48.748;19.142;2023-05-02T08:26:34;35.58;30.20;44.39;;
72805;Laerm;60920;48.748;19.142;2023-05-02T08:28:59;36.24;31.82;42.90;;
72805;Laerm;60920;48.748;19.142;2023-05-02T08:31:25;36.33;31.75;44.10;;
72805;Laerm;60920;48.748;19.142;2023-05-02T08:33:50;35.28;30.72;43.10;;
72805;Laerm;60920;48.748;19.142;2023-05-02T08:36:16;35.47;31.23;43.93;;
72805;Laerm;60920;48.748;19.142;2023-05-02T08:38:42;36.44;31.55;43.85;;
72805;Laerm;60920;48.748;19.142;2023-05-02T08:41:09;36.24;31.66;42.42;;
72805;Laerm;60920;48.748;19.142;2023-05-02T08:43:34;36.30;31.34;45.60;;
72805;Laerm;60920;48.748;19.142;2023-05-02T08:46:00;36.70;32.16;42.61;;
72805;Laerm;60920;48.748;19.142;2023-05-02T08:48:26;36.16;31.73;43.71;;
72805;Laerm;60920;48.748;19.142;2023-05-02T08:50:51;36.55;32.36;44.15;;
72805;Laerm;60920;48.748;19.142;2023-05-02T08:53:18;37.29;32.76;54.30;;
72805;Laerm;60920;48.748;19.142;2023-05-02T08:55:43;36.38;31.86;46.18;;
72805;Laerm;60920;48.748;19.142;2023-05-02T08:58:10;37.26;32.08;45.30;;
72805;Laerm;60920;48.748;19.142;2023-05-02T09:00:37;36.33;31.24;45.64;;
72805;Laerm;60920;48.748;19.142;2023-05-02T09:05:43;35.86;31.53;42.49;;
72805;Laerm;60920;48.748;19.142;2023-05-02T09:08:10;35.63;30.89;44.54;;
72805;Laerm;60920;48.748;19.142;2023-05-02T09:10:35;36.26;31.86;47.58;;
72805;Laerm;60920;48.748;19.142;2023-05-02T09:13:35;35.93;32.27;44.41;;
72805;Laerm;60920;48.748;19.142;2023-05-02T09:15:58;36.45;32.25;44.27;;
72805;Laerm;60920;48.748;19.142;2023-05-02T09:18:26;36.02;30.47;42.72;;
72805;Laerm;60920;48.748;19.142;2023-05-02T09:20:52;36.91;31.90;43.22;;
72805;Laerm;60920;48.748;19.142;2023-05-02T09:23:17;35.51;32.19;49.59;;
72805;Laerm;60920;48.748;19.142;2023-05-02T09:25:42;36.56;32.30;45.77;;
72805;Laerm;60920;48.748;19.142;2023-05-02T09:28:08;35.72;31.85;42.03;;
72805;Laerm;60920;48.748;19.142;2023-05-02T09:30:33;35.11;30.77;44.10;;
72805;Laerm;60920;48.748;19.142;2023-05-02T09:32:59;36.34;31.96;41.27;;
72805;Laerm;60920;48.748;19.142;2023-05-02T09:35:24;35.68;31.71;41.64;;
72805;Laerm;60920;48.748;19.142;2023-05-02T09:37:54;36.13;31.82;41.23;;
72805;Laerm;60920;48.748;19.142;2023-05-02T09:40:19;36.22;31.17;43.88;;
72805;Laerm;60920;48.748;19.142;2023-05-02T09:42:45;35.41;31.11;41.64;;
72805;Laerm;60920;48.748;19.142;2023-05-02T09:45:21;36.55;32.29;47.18;;
72805;Laerm;60920;48.748;19.142;2023-05-02T09:47:47;36.28;31.15;48.42;;
72805;Laerm;60920;48.748;19.142;2023-05-02T09:50:32;39.05;31.39;54.26;;
72805;Laerm;60920;48.748;19.142;2023-05-02T09:53:05;36.95;32.25;45.03;;
72805;Laerm;60920;48.748;19.142;2023-05-02T09:55:31;37.32;30.91;48.76;;
72805;Laerm;60920;48.748;19.142;2023-05-02T09:57:56;35.90;31.22;43.97;;
72805;Laerm;60920;48.748;19.142;2023-05-02T10:00:22;34.98;30.95;42.75;;
72805;Laerm;60920;48.748;19.142;2023-05-02T10:02:49;35.31;30.56;44.75;;
72805;Laerm;60920;48.748;19.142;2023-05-02T10:05:15;34.07;30.30;39.92;;
72805;Laerm;60920;48.748;19.142;2023-05-02T10:07:42;34.99;30.86;44.12;;
72805;Laerm;60920;48.748;19.142;2023-05-02T10:10:07;35.62;31.88;40.64;;
72805;Laerm;60920;48.748;19.142;2023-05-02T10:12:35;35.58;31.70;43.10;;
72805;Laerm;60920;48.748;19.142;2023-05-02T10:15:02;35.11;30.16;41.77;;
72805;Laerm;60920;48.748;19.142;2023-05-02T10:17:32;35.28;30.77;42.93;;
72805;Laerm;60920;48.748;19.142;2023-05-02T10:20:03;35.64;31.29;42.32;;
72805;Laerm;60920;48.748;19.142;2023-05-02T10:22:29;35.17;30.72;43.45;;
72805;Laerm;60920;48.748;19.142;2023-05-02T10:24:55;34.69;31.36;41.67;;
72805;Laerm;60920;48.748;19.142;2023-05-02T10:27:22;36.13;30.62;46.60;;
72805;Laerm;60920;48.748;19.142;2023-05-02T10:29:47;37.20;31.36;47.69;;
72805;Laerm;60920;48.748;19.142;2023-05-02T10:32:16;35.92;30.44;51.60;;
72805;Laerm;60920;48.748;19.142;2023-05-02T10:34:42;35.18;30.78;41.39;;
72805;Laerm;60920;48.748;19.142;2023-05-02T10:37:08;35.51;31.44;42.89;;
72805;Laerm;60920;48.748;19.142;2023-05-02T10:39:33;36.03;31.98;41.45;;
72805;Laerm;60920;48.748;19.142;2023-05-02T10:41:58;36.97;30.88;48.77;;
72805;Laerm;60920;48.748;19.142;2023-05-02T10:44:33;34.98;30.35;42.91;;
72805;Laerm;60920;48.748;19.142;2023-05-02T10:46:58;35.02;30.82;43.95;;
72805;Laerm;60920;48.748;19.142;2023-05-02T10:49:24;34.27;30.75;41.62;;
72805;Laerm;60920;48.748;19.142;2023-05-02T10:51:51;34.78;30.26;40.84;;
72805;Laerm;60920;48.748;19.142;2023-05-02T10:54:23;34.87;30.21;42.95;;
72805;Laerm;60920;48.748;19.142;2023-05-02T10:59:26;36.25;30.68;48.14;;
72805;Laerm;60920;48.748;19.142;2023-05-02T11:01:52;35.38;31.06;42.60;;
72805;Laerm;60920;48.748;19.142;2023-05-02T11:04:17;34.78;30.48;39.55;;
72805;Laerm;60920;48.748;19.142;2023-05-02T11:11:48;34.62;29.82;44.45;;
72805;Laerm;60920;48.748;19.142;2023-05-02T11:24:53;36.30;31.18;54.32;;
72805;Laerm;60920;48.748;19.142;2023-05-02T11:32:21;36.94;32.16;53.96;;
72805;Laerm;60920;48.748;19.142;2023-05-02T11:34:47;36.86;30.95;43.80;;
72805;Laerm;60920;48.748;19.142;2023-05-02T11:37:16;35.71;30.33;43.94;;
72805;Laerm;60920;48.748;19.142;2023-05-02T11:39:42;34.99;30.54;42.08;;
72805;Laerm;60920;48.748;19.142;2023-05-02T11:42:07;35.38;29.63;60.54;;
72805;Laerm;60920;48.748;19.142;2023-05-02T11:44:32;35.59;29.74;43.62;;
72805;Laerm;60920;48.748;19.142;2023-05-02T11:46:59;36.07;30.35;51.44;;
72805;Laerm;60920;48.748;19.142;2023-05-02T11:49:25;35.31;31.80;40.63;;
72805;Laerm;60920;48.748;19.142;2023-05-02T11:51:51;35.89;31.46;41.64;;
72805;Laerm;60920;48.748;19.142;2023-05-02T11:54:17;36.15;31.86;42.27;;
72805;Laerm;60920;48.748;19.142;2023-05-02T11:56:43;37.11;31.73;43.56;;
72805;Laerm;60920;48.748;19.142;2023-05-02T11:59:08;38.18;33.10;47.75;;
72805;Laerm;60920;48.748;19.142;2023-05-02T12:01:33;37.04;32.47;43.25;;
72805;Laerm;60920;48.748;19.142;2023-05-02T12:04:05;35.84;31.42;43.84;;
72805;Laerm;60920;48.748;19.142;2023-05-02T12:06:31;35.72;31.19;44.06;;
72805;Laerm;60920;48.748;19.142;2023-05-02T12:09:07;36.91;32.94;44.55;;
72805;Laerm;60920;48.748;19.142;2023-05-02T12:11:33;37.64;32.80;46.84;;
72805;Laerm;60920;48.748;19.142;2023-05-02T12:13:59;38.01;33.20;45.45;;
72805;Laerm;60920;48.748;19.142;2023-05-02T12:16:25;39.62;32.37;58.13;;
72805;Laerm;60920;48.748;19.142;2023-05-02T12:18:50;37.51;33.51;45.93;;
72805;Laerm;60920;48.748;19.142;2023-05-02T12:21:16;38.57;34.76;51.10;;
72805;Laerm;60920;48.748;19.142;2023-05-02T12:23:41;37.81;33.63;44.46;;
72805;Laerm;60920;48.748;19.142;2023-05-02T12:26:17;38.30;33.26;45.63;;
72805;Laerm;60920;48.748;19.142;2023-05-02T12:28:49;38.95;33.21;61.49;;
72805;Laerm;60920;48.748;19.142;2023-05-02T12:31:15;39.06;33.27;68.38;;
72805;Laerm;60920;48.748;19.142;2023-05-02T12:33:41;37.19;33.28;46.27;;
72805;Laerm;60920;48.748;19.142;2023-05-02T12:36:06;37.54;33.70;43.13;;
72805;Laerm;60920;48.748;19.142;2023-05-02T12:38:33;37.41;32.51;47.50;;
72805;Laerm;60920;48.748;19.142;2023-05-02T12:40:59;35.84;32.66;40.10;;
72805;Laerm;60920;48.748;19.142;2023-05-02T12:43:25;36.28;31.43;40.60;;
72805;Laerm;60920;48.748;19.142;2023-05-02T12:45:57;36.39;32.17;42.90;;
72805;Laerm;60920;48.748;19.142;2023-05-02T12:48:32;36.19;32.05;45.00;;
72805;Laerm;60920;48.748;19.142;2023-05-02T12:50:58;36.62;32.28;44.15;;
72805;Laerm;60920;48.748;19.142;2023-05-02T12:53:44;35.95;32.68;39.91;;
72805;Laerm;60920;48.748;19.142;2023-05-02T12:56:10;35.78;32.22;41.83;;
72805;Laerm;60920;48.748;19.142;2023-05-02T12:58:39;36.12;31.46;42.80;;
72805;Laerm;60920;48.748;19.142;2023-05-02T13:01:06;36.54;32.92;42.52;;
72805;Laerm;60920;48.748;19.142;2023-05-02T13:03:31;36.56;32.25;45.31;;
72805;Laerm;60920;48.748;19.142;2023-05-02T13:05:56;36.06;33.14;41.16;;
72805;Laerm;60920;48.748;19.142;2023-05-02T13:08:22;36.12;30.79;41.68;;
72805;Laerm;60920;48.748;19.142;2023-05-02T13:10:47;36.16;32.30;42.61;;
72805;Laerm;60920;48.748;19.142;2023-05-02T13:13:13;37.26;33.44;43.08;;
72805;Laerm;60920;48.748;19.142;2023-05-02T13:15:38;36.39;32.48;44.20;;
72805;Laerm;60920;48.748;19.142;2023-05-02T13:18:03;36.89;32.50;44.32;;
72805;Laerm;60920;48.748;19.142;2023-05-02T13:20:29;36.78;32.59;44.37;;
72805;Laerm;60920;48.748;19.142;2023-05-02T13:22:54;36.33;31.99;41.52;;
72805;Laerm;60920;48.748;19.142;2023-05-02T13:25:19;35.73;32.62;42.48;;
72805;Laerm;60920;48.748;19.142;2023-05-02T13:27:45;36.44;32.59;44.68;;
72805;Laerm;60920;48.748;19.142;2023-05-02T13:30:10;36.63;32.97;41.86;;
72805;Laerm;60920;48.748;19.142;2023-05-02T13:32:36;36.93;32.88;49.36;;
72805;Laerm;60920;48.748;19.142;2023-05-02T13:35:01;37.24;33.18;44.38;;
72805;Laerm;60920;48.748;19.142;2023-05-02T13:37:27;36.86;33.00;43.71;;
72805;Laerm;60920;48.748;19.142;2023-05-02T13:39:53;36.97;33.29;47.26;;
72805;Laerm;60920;48.748;19.142;2023-05-02T13:42:18;36.79;32.60;46.88;;
72805;Laerm;60920;48.748;19.142;2023-05-02T13:44:43;35.90;32.02;41.05;;
72805;Laerm;60920;48.748;19.142;2023-05-02T13:47:09;36.33;32.66;40.29;;
72805;Laerm;60920;48.748;19.142;2023-05-02T13:49:34;36.79;32.95;42.29;;
72805;Laerm;60920;48.748;19.142;2023-05-02T13:51:59;37.74;32.90;44.14;;
72805;Laerm;60920;48.748;19.142;2023-05-02T13:54:25;37.56;31.72;55.04;;
72805;Laerm;60920;48.748;19.142;2023-05-02T13:56:50;36.47;31.85;41.64;;
72805;Laerm;60920;48.748;19.142;2023-05-02T13:59:15;36.64;32.16;44.00;;
72805;Laerm;60920;48.748;19.142;2023-05-02T14:01:41;35.82;31.76;40.29;;
72805;Laerm;60920;48.748;19.142;2023-05-02T14:04:06;35.15;31.38;41.48;;
72805;Laerm;60920;48.748;19.142;2023-05-02T14:06:35;36.47;31.63;44.41;;
72805;Laerm;60920;48.748;19.142;2023-05-02T14:09:00;35.75;31.77;47.22;;
72805;Laerm;60920;48.748;19.142;2023-05-02T14:11:26;35.90;31.22;43.30;;
72805;Laerm;60920;48.748;19.142;2023-05-02T14:13:51;36.81;31.41;47.27;;